createdAt,value
2022-12-08T00:05:05.900Z,9.35
2022-12-08T00:10:39.648Z,8.73
2022-12-08T00:15:35.210Z,8.80
2022-12-08T00:20:38.690Z,8.80
2022-12-08T00:25:42.215Z,8.20
2022-12-08T00:30:47.246Z,9.07
2022-12-08T00:35:50.855Z,7.65
2022-12-08T00:40:54.324Z,8.00
2022-12-08T00:45:59.191Z,9.63
2022-12-08T00:51:02.766Z,8.93
2022-12-08T00:56:06.677Z,8.48
2022-12-08T01:01:12.866Z,6.88
2022-12-08T01:06:16.387Z,7.43
2022-12-08T01:11:20.931Z,6.85
2022-12-08T01:16:27.412Z,7.68
2022-12-08T01:21:31.034Z,7.80
2022-12-08T01:26:34.518Z,8.55
2022-12-08T01:31:40.612Z,9.38
2022-12-08T01:36:44.515Z,11.27
2022-12-08T01:41:48.672Z,12.98
2022-12-08T01:46:55.381Z,14.65
2022-12-08T01:52:04.241Z,14.27
2022-12-08T01:57:12.277Z,13.70
2022-12-08T02:02:17.286Z,14.88
2022-12-08T02:07:22.910Z,14.73
2022-12-08T02:12:26.500Z,14.50
2022-12-08T02:17:42.635Z,13.98
2022-12-08T02:22:53.154Z,13.80
2022-12-08T02:28:04.813Z,10.90
2022-12-08T02:33:51.308Z,13.48
2022-12-08T02:39:04.035Z,12.93
2022-12-08T02:44:12.328Z,11.98
2022-12-08T02:49:17.197Z,12.13
2022-12-08T02:54:20.772Z,10.02
2022-12-08T02:59:39.932Z,9.82
2022-12-08T03:04:47.996Z,9.02
2022-12-08T03:09:56.063Z,8.90
2022-12-08T03:15:07.477Z,9.95
2022-12-08T03:20:17.539Z,10.52
2022-12-08T03:25:24.194Z,9.65
2022-12-08T03:30:31.710Z,10.10
2022-12-08T03:35:40.665Z,9.60
2022-12-08T03:41:05.547Z,9.18
2022-12-08T03:46:09.035Z,9.20
2022-12-08T03:51:14.386Z,8.38
2022-12-08T03:56:25.100Z,7.60
2022-12-08T04:01:28.712Z,6.35
2022-12-08T04:06:34.031Z,5.57
2022-12-08T04:11:37.541Z,5.50
2022-12-08T04:16:41.151Z,4.70
2022-12-08T04:21:45.981Z,4.00
2022-12-08T04:26:49.801Z,3.72
2022-12-08T04:31:53.389Z,3.67
2022-12-08T04:36:58.294Z,3.95
2022-12-08T04:42:01.914Z,4.07
2022-12-08T04:47:05.533Z,4.22
2022-12-08T04:52:10.486Z,3.92
2022-12-08T04:57:14.015Z,4.57
2022-12-08T05:02:17.517Z,4.70
2022-12-08T05:07:22.428Z,4.80
2022-12-08T05:12:26.171Z,5.05
2022-12-08T05:17:29.674Z,5.43
2022-12-08T05:22:34.695Z,5.53
2022-12-08T05:27:38.640Z,5.53
2022-12-08T05:32:42.165Z,5.78
2022-12-08T05:37:47.003Z,5.32
2022-12-08T05:42:50.509Z,4.38
2022-12-08T05:47:54.426Z,4.13
2022-12-08T05:52:59.291Z,3.13
2022-12-08T05:58:07.707Z,1.67
2022-12-08T06:03:12.864Z,0.98
2022-12-08T06:08:18.297Z,1.27
2022-12-08T06:13:22.020Z,1.08
2022-12-08T06:18:31.161Z,1.00
2022-12-08T06:23:38.214Z,0.98
2022-12-08T06:28:42.816Z,1.02
2022-12-08T06:33:46.807Z,1.17
2022-12-08T06:38:51.906Z,1.17
2022-12-08T06:43:57.242Z,1.60
2022-12-08T06:49:00.698Z,1.80
2022-12-08T06:54:05.655Z,1.58
2022-12-08T06:59:09.189Z,1.60
2022-12-08T07:04:12.778Z,2.20
2022-12-08T07:09:17.675Z,1.48
2022-12-08T07:14:24.762Z,2.58
2022-12-08T07:19:28.249Z,1.63
2022-12-08T07:24:33.467Z,1.77
2022-12-08T07:29:36.949Z,1.83
2022-12-08T07:34:40.407Z,1.88
2022-12-08T07:39:45.462Z,1.80
2022-12-08T07:44:48.942Z,1.52
2022-12-08T07:49:52.526Z,1.48
2022-12-08T07:54:57.381Z,1.27
2022-12-08T08:00:00.889Z,0.88
2022-12-08T08:05:05.031Z,0.85
2022-12-08T08:10:12.360Z,0.70
2022-12-08T08:15:16.061Z,1.00
2022-12-08T08:20:22.065Z,0.90
2022-12-08T08:25:26.968Z,1.20
2022-12-08T08:30:30.387Z,1.20
2022-12-08T08:35:34.548Z,1.05
2022-12-08T08:40:40.880Z,1.00
2022-12-08T08:45:46.684Z,1.13
2022-12-08T08:50:50.783Z,1.00
2022-12-08T08:55:55.824Z,0.80
2022-12-08T09:01:00.850Z,1.45
2022-12-08T09:06:04.601Z,1.90
2022-12-08T09:11:10.192Z,2.88
2022-12-08T09:16:13.819Z,2.42
2022-12-08T09:21:22.511Z,3.10
2022-12-08T09:26:29.832Z,2.67
2022-12-08T09:31:33.415Z,2.38
2022-12-08T09:36:37.066Z,2.45
2022-12-08T09:41:48.521Z,2.40
2022-12-08T09:46:54.235Z,2.67
2022-12-08T09:51:58.653Z,2.38
2022-12-08T09:57:12.338Z,1.80
2022-12-08T10:02:22.946Z,1.50
2022-12-08T10:07:38.075Z,1.77
2022-12-08T10:12:48.833Z,1.30
2022-12-08T10:17:55.624Z,1.10
2022-12-08T10:23:09.643Z,1.90
2022-12-08T10:28:14.545Z,1.45
2022-12-08T10:33:20.549Z,1.60
2022-12-08T10:38:28.331Z,1.63
2022-12-08T10:43:34.672Z,1.83
2022-12-08T10:48:38.269Z,1.58
2022-12-08T10:53:47.234Z,2.38
2022-12-08T10:59:06.948Z,2.53
2022-12-08T11:04:16.677Z,2.53
2022-12-08T11:09:27.314Z,2.55
2022-12-08T11:14:39.169Z,3.00
2022-12-08T11:19:44.801Z,3.83
2022-12-08T11:24:58.373Z,4.40
2022-12-08T11:30:09.685Z,4.72
2022-12-08T11:35:23.955Z,4.90
2022-12-08T11:40:32.957Z,4.85
2022-12-08T11:45:37.888Z,4.55
2022-12-08T11:50:46.882Z,8.48
2022-12-08T11:55:56.079Z,3.97
2022-12-08T12:01:01.965Z,3.53
2022-12-08T12:06:53.725Z,3.78
2022-12-08T12:12:16.708Z,4.13
2022-12-08T12:17:36.387Z,3.45
2022-12-08T12:22:40.248Z,3.47
2022-12-08T12:27:46.623Z,2.97
2022-12-08T12:32:55.811Z,2.45
2022-12-08T12:38:03.222Z,1.60
2022-12-08T12:43:25.266Z,1.40
2022-12-08T12:48:30.270Z,2.00
2022-12-08T12:53:52.156Z,1.25
2022-12-08T12:58:55.737Z,0.85
2022-12-08T13:04:08.384Z,0.55
2022-12-08T13:09:30.727Z,0.88
2022-12-08T13:14:37.280Z,0.63
2022-12-08T13:19:48.829Z,0.60
2022-12-08T13:25:15.033Z,0.50
2022-12-08T13:30:43.601Z,1.70
2022-12-08T13:35:57.888Z,1.00
2022-12-08T13:41:04.738Z,0.93
2022-12-08T13:46:57.981Z,1.35
2022-12-08T13:57:14.289Z,1.40
2022-12-08T14:02:27.228Z,1.55
2022-12-08T14:07:33.774Z,1.08
2022-12-08T14:12:38.686Z,1.30
2022-12-08T14:17:42.915Z,2.85
2022-12-08T14:22:50.485Z,1.58
2022-12-08T14:28:01.024Z,2.20
2022-12-08T14:33:06.169Z,1.73
2022-12-08T14:38:15.398Z,2.00
2022-12-08T14:43:21.359Z,2.30
2022-12-08T14:48:27.529Z,2.38
2022-12-08T14:53:39.942Z,1.98
2022-12-08T14:58:43.871Z,2.20
2022-12-08T15:03:51.518Z,2.40
2022-12-08T15:08:59.867Z,3.60
2022-12-08T15:14:03.951Z,3.42
2022-12-08T15:19:19.081Z,18.27
2022-12-08T15:24:26.426Z,4.15
2022-12-08T15:29:31.407Z,3.80
2022-12-08T15:34:37.406Z,4.30
2022-12-08T15:39:42.294Z,4.20
2022-12-08T15:44:46.451Z,4.50
2022-12-08T15:49:51.294Z,4.25
2022-12-08T15:54:56.409Z,4.38
2022-12-08T16:00:00.313Z,4.30
2022-12-08T16:05:41.563Z,4.57
2022-12-08T16:10:45.465Z,5.18
2022-12-08T16:16:00.345Z,4.95
2022-12-08T16:21:31.590Z,5.45
2022-12-08T16:27:42.614Z,6.40
2022-12-08T16:31:54.222Z,7.63
2022-12-08T16:36:58.174Z,6.70
2022-12-08T16:42:20.592Z,14.20
2022-12-08T16:47:24.377Z,7.25
2022-12-08T16:52:28.432Z,6.70
2022-12-08T16:57:33.660Z,8.48
2022-12-08T17:02:37.571Z,7.65
2022-12-08T17:07:41.392Z,8.13
2022-12-08T17:12:47.298Z,8.60
2022-12-08T17:17:51.290Z,9.70
2022-12-08T17:22:55.689Z,11.93
2022-12-08T17:28:00.701Z,12.23
2022-12-08T17:33:04.567Z,11.45
2022-12-08T17:38:08.135Z,14.43
2022-12-08T17:43:14.680Z,16.35
2022-12-08T17:48:18.526Z,15.93
2022-12-08T17:53:23.395Z,15.68
2022-12-08T17:58:28.350Z,15.48
2022-12-08T18:03:32.092Z,16.10
2022-12-08T18:08:36.402Z,17.30
2022-12-08T18:13:41.909Z,16.83
2022-12-08T18:18:45.731Z,17.15
2022-12-08T18:23:49.527Z,17.05
2022-12-08T18:28:54.647Z,18.08
2022-12-08T18:33:58.542Z,17.85
2022-12-08T18:39:05.846Z,16.33
2022-12-08T18:44:15.901Z,17.55
2022-12-08T18:49:21.357Z,16.52
2022-12-08T18:54:37.106Z,16.05
2022-12-08T18:59:50.223Z,17.67
2022-12-08T19:04:56.913Z,16.95
2022-12-08T19:10:00.777Z,16.98
2022-12-08T19:15:06.511Z,16.63
2022-12-08T19:20:11.196Z,14.68
2022-12-08T19:25:14.966Z,14.60
2022-12-08T19:30:20.060Z,14.13
2022-12-08T19:35:23.536Z,14.10
2022-12-08T19:40:45.021Z,14.90
2022-12-08T19:45:50.013Z,14.95
2022-12-08T19:50:53.781Z,13.77
2022-12-08T19:55:57.683Z,14.57
2022-12-08T20:01:02.936Z,14.48
2022-12-08T20:06:07.092Z,15.20
2022-12-08T20:11:10.962Z,15.25
2022-12-08T20:16:17.242Z,14.68
2022-12-08T20:21:22.203Z,15.68
2022-12-08T20:26:26.286Z,14.52
2022-12-08T20:31:33.590Z,16.08
2022-12-08T20:36:37.458Z,16.08
2022-12-08T20:41:41.145Z,15.50
2022-12-08T20:46:49.470Z,14.45
2022-12-08T20:51:53.451Z,14.95
2022-12-08T20:56:57.050Z,15.43
2022-12-08T21:02:02.221Z,18.23
2022-12-08T21:07:05.878Z,16.52
2022-12-08T21:12:09.669Z,19.27
2022-12-08T21:17:15.026Z,19.10
2022-12-08T21:22:18.742Z,21.38
2022-12-08T21:27:22.501Z,20.83
2022-12-08T21:32:30.614Z,22.85
2022-12-08T21:37:35.159Z,22.83
2022-12-08T21:42:47.678Z,25.65
2022-12-08T21:47:53.018Z,24.83
2022-12-08T21:52:57.106Z,26.15
2022-12-08T21:58:02.193Z,25.85
2022-12-08T22:03:08.315Z,26.20
2022-12-08T22:08:12.250Z,23.73
2022-12-08T22:13:16.174Z,26.60
2022-12-08T22:18:21.503Z,27.13
2022-12-08T22:23:25.732Z,31.48
2022-12-08T22:28:32.377Z,30.38
2022-12-08T22:33:37.950Z,30.25
2022-12-08T22:38:41.628Z,28.52
2022-12-08T22:43:45.933Z,25.92
2022-12-08T22:48:51.479Z,25.83
2022-12-08T22:53:55.049Z,25.27
2022-12-08T22:58:59.867Z,23.52
2022-12-08T23:04:05.179Z,23.02
2022-12-08T23:09:08.930Z,23.70
2022-12-08T23:14:12.940Z,22.38
2022-12-08T23:19:17.898Z,23.05
2022-12-08T23:24:21.389Z,22.77
2022-12-08T23:29:25.154Z,25.33
2022-12-08T23:34:30.243Z,24.80
2022-12-08T23:39:33.798Z,22.35
2022-12-08T23:44:37.631Z,25.15
2022-12-08T23:49:42.546Z,24.58
2022-12-08T23:54:46.129Z,23.55
2022-12-08T23:59:49.655Z,23.00
